LIMP/PMF METAR and TAF weather

Enter ICAO airport designator
Station Type Date Time Source
LIMP METAR 2019/12/09 21:50 UTC NOAA

LIMP 092150Z 20004KT 170V250 2000 BR BKN020 07/07 Q1009


Station Type Date Time Source
LIMP Decoded METAR 2019/12/09 21:50 UTC NOAA

Parma, Italy (LIMP) 44-49-17N 010-17-41E
Dec 09, 2019 - 04:50 PM EST / 2019.12.09 2150 UTC
Wind: from the SSW (200 degrees) at 5 MPH (4 KT) (direction variable):0
Visibility: 1 mile(s):0
Sky conditions: mostly cloudy
Weather: mist
Temperature: 44 F (7 C)
Dew Point: 44 F (7 C)
Relative Humidity: 100%
Pressure (altimeter): 29.80 in. Hg (1009 hPa)
ob: LIMP 092150Z 20004KT 170V250 2000 BR BKN020 07/07 Q1009
cycle: 22

Station Type Date Time Source
LIMP TAF 2019/12/09 18:21 UTC NOAA

TAF LIMP 091700Z 0918/1018 VRB05KT 2500 BR SCT025
BECMG 1001/1003 29012KT CAVOK

Example: see airport list